Nearby METAR Reports

 

LBSF - Sofia (observato, Bulgaria
Distance from station: ENE 64km
Updated: 17/08/2017 06:30
Clear
Clear
 Wind from calm
Wind: Calm
Temperature: 15°C
Dew Point: 14°C
Humidity: 94%
Barometer: 1019 hPa
Summary: Clear
Visibility: greater than 10 km
2017/08/17 03:30 LBSF 170330Z 00000KT CAVOK 15/14 Q1019 NOSIG
LWSK - Skopje/Petrovac, Macedonia
Distance from station: WSW 99km
Updated: 17/08/2017 06:30
Clear
Clear
 Wind from varies
Wind: varies 4 km/h
Temperature: 18°C
Dew Point: 14°C
Humidity: 78%
Barometer: 1017 hPa
Summary: Clear
Visibility: greater than 10 km
2017/08/17 03:30 LWSK 170330Z VRB02KT CAVOK 18/14 Q1017 NOSIG
 
LYNI - Nis, Yugoslavia
Distance from station: NNW 127km
Updated: 17/08/2017 06:30
Clear
Clear
 Wind from SE
Wind: SE 4 km/h
Temperature: 16°C
Dew Point: 14°C
Humidity: 88%
Barometer: 1018 hPa
Summary: Clear
Visibility: greater than 10 km
2017/08/17 03:30 LYNI 170330Z 14002KT CAVOK 16/14 Q1018
BKPR - Prishtina, Yugoslavia
Distance from station: W 141km
Updated: 17/08/2017 06:30
Mist, Partly cloudy
Mist, Partly cloudy
 Wind from varies
Wind: varies 2 km/h
Temperature: 15°C
Dew Point: 12°C
Humidity: 82%
Barometer: 1019 hPa
Summary: Mist
Clouds: Partly Cloudy
Visibility: 4 km
2017/08/17 03:30 BKPR 170330Z VRB01KT 4000 BR NSC 15/12 Q1019 TEMPO 2500